sensor_id;sensor_type;location;lat;lon;timestamp;temperature;humidity
6293;DHT22;3179;54.350;10.102;2023-05-09T00:02:08;17.50;72.00
6293;DHT22;3179;54.350;10.102;2023-05-09T00:04:35;17.40;72.20
6293;DHT22;3179;54.350;10.102;2023-05-09T00:07:01;17.40;72.20
6293;DHT22;3179;54.350;10.102;2023-05-09T00:09:28;17.40;72.30
6293;DHT22;3179;54.350;10.102;2023-05-09T00:11:56;17.40;72.30
6293;DHT22;3179;54.350;10.102;2023-05-09T00:14:23;17.30;72.50
6293;DHT22;3179;54.350;10.102;2023-05-09T00:16:50;17.30;72.60
6293;DHT22;3179;54.350;10.102;2023-05-09T00:19:18;17.20;72.50
6293;DHT22;3179;54.350;10.102;2023-05-09T00:21:45;17.20;72.50
6293;DHT22;3179;54.350;10.102;2023-05-09T00:24:11;17.20;72.50
6293;DHT22;3179;54.350;10.102;2023-05-09T00:26:38;17.20;72.70
6293;DHT22;3179;54.350;10.102;2023-05-09T00:29:06;17.10;72.60
6293;DHT22;3179;54.350;10.102;2023-05-09T00:31:33;17.10;72.60
6293;DHT22;3179;54.350;10.102;2023-05-09T00:34:00;17.10;72.70
6293;DHT22;3179;54.350;10.102;2023-05-09T00:36:27;17.10;73.20
6293;DHT22;3179;54.350;10.102;2023-05-09T00:38:54;17.00;72.60
6293;DHT22;3179;54.350;10.102;2023-05-09T00:41:20;17.00;73.20
6293;DHT22;3179;54.350;10.102;2023-05-09T00:43:47;17.00;73.20
6293;DHT22;3179;54.350;10.102;2023-05-09T00:46:15;17.00;73.20
6293;DHT22;3179;54.350;10.102;2023-05-09T00:48:42;16.90;73.30
6293;DHT22;3179;54.350;10.102;2023-05-09T00:51:11;16.90;74.00
6293;DHT22;3179;54.350;10.102;2023-05-09T00:53:39;16.90;73.70
6293;DHT22;3179;54.350;10.102;2023-05-09T00:56:08;16.80;73.70
6293;DHT22;3179;54.350;10.102;2023-05-09T00:58:36;16.80;73.80
6293;DHT22;3179;54.350;10.102;2023-05-09T01:01:03;16.80;73.80
6293;DHT22;3179;54.350;10.102;2023-05-09T01:03:32;16.80;73.90
6293;DHT22;3179;54.350;10.102;2023-05-09T01:06:04;16.80;73.90
6293;DHT22;3179;54.350;10.102;2023-05-09T01:08:46;16.70;73.80
6293;DHT22;3179;54.350;10.102;2023-05-09T01:11:24;16.70;74.40
6293;DHT22;3179;54.350;10.102;2023-05-09T01:14:07;16.70;74.10
6293;DHT22;3179;54.350;10.102;2023-05-09T01:16:40;16.70;74.00
6293;DHT22;3179;54.350;10.102;2023-05-09T01:19:23;16.60;73.90
6293;DHT22;3179;54.350;10.102;2023-05-09T01:21:52;16.60;74.40
6293;DHT22;3179;54.350;10.102;2023-05-09T01:27:38;16.50;74.30
6293;DHT22;3179;54.350;10.102;2023-05-09T01:30:11;16.50;74.50
6293;DHT22;3179;54.350;10.102;2023-05-09T01:32:39;16.40;74.30
6293;DHT22;3179;54.350;10.102;2023-05-09T01:35:12;16.40;74.40
6293;DHT22;3179;54.350;10.102;2023-05-09T01:37:42;16.40;74.60
6293;DHT22;3179;54.350;10.102;2023-05-09T01:40:13;16.40;74.60
6293;DHT22;3179;54.350;10.102;2023-05-09T01:42:43;16.40;74.80
6293;DHT22;3179;54.350;10.102;2023-05-09T01:45:13;16.30;74.80
6293;DHT22;3179;54.350;10.102;2023-05-09T01:47:42;16.30;74.90
6293;DHT22;3179;54.350;10.102;2023-05-09T01:50:10;16.30;74.90
6293;DHT22;3179;54.350;10.102;2023-05-09T01:52:39;16.20;75.00
6293;DHT22;3179;54.350;10.102;2023-05-09T01:55:07;16.20;74.90
6293;DHT22;3179;54.350;10.102;2023-05-09T01:57:35;16.20;75.00
6293;DHT22;3179;54.350;10.102;2023-05-09T02:00:03;16.20;75.20
6293;DHT22;3179;54.350;10.102;2023-05-09T02:02:32;16.10;75.40
6293;DHT22;3179;54.350;10.102;2023-05-09T02:05:01;16.10;75.50
6293;DHT22;3179;54.350;10.102;2023-05-09T02:07:28;16.10;75.70
6293;DHT22;3179;54.350;10.102;2023-05-09T02:09:57;16.00;75.60
6293;DHT22;3179;54.350;10.102;2023-05-09T02:12:25;16.00;75.50
6293;DHT22;3179;54.350;10.102;2023-05-09T02:14:52;15.90;75.60
6293;DHT22;3179;54.350;10.102;2023-05-09T02:17:19;16.00;75.90
6293;DHT22;3179;54.350;10.102;2023-05-09T02:19:47;15.90;75.80
6293;DHT22;3179;54.350;10.102;2023-05-09T02:22:15;15.90;76.00
6293;DHT22;3179;54.350;10.102;2023-05-09T02:24:42;15.90;76.00
6293;DHT22;3179;54.350;10.102;2023-05-09T02:27:10;15.90;76.20
6293;DHT22;3179;54.350;10.102;2023-05-09T02:29:49;15.90;76.10
6293;DHT22;3179;54.350;10.102;2023-05-09T02:32:21;15.80;76.20
6293;DHT22;3179;54.350;10.102;2023-05-09T02:34:52;15.80;76.00
6293;DHT22;3179;54.350;10.102;2023-05-09T02:37:20;15.80;76.30
6293;DHT22;3179;54.350;10.102;2023-05-09T02:39:47;15.80;76.30
6293;DHT22;3179;54.350;10.102;2023-05-09T02:42:21;15.80;76.50
6293;DHT22;3179;54.350;10.102;2023-05-09T02:44:49;15.80;76.80
6293;DHT22;3179;54.350;10.102;2023-05-09T02:47:16;15.70;76.70
6293;DHT22;3179;54.350;10.102;2023-05-09T02:49:43;15.70;76.70
6293;DHT22;3179;54.350;10.102;2023-05-09T02:52:11;15.70;76.90
6293;DHT22;3179;54.350;10.102;2023-05-09T02:54:38;15.60;76.90
6293;DHT22;3179;54.350;10.102;2023-05-09T02:57:05;15.60;77.10
6293;DHT22;3179;54.350;10.102;2023-05-09T02:59:32;15.60;77.00
6293;DHT22;3179;54.350;10.102;2023-05-09T03:01:59;15.50;77.30
6293;DHT22;3179;54.350;10.102;2023-05-09T03:04:26;15.50;77.30
6293;DHT22;3179;54.350;10.102;2023-05-09T03:06:52;15.60;77.40
6293;DHT22;3179;54.350;10.102;2023-05-09T03:09:21;15.50;77.50
6293;DHT22;3179;54.350;10.102;2023-05-09T03:11:48;15.50;77.40
6293;DHT22;3179;54.350;10.102;2023-05-09T03:14:15;15.50;77.40
6293;DHT22;3179;54.350;10.102;2023-05-09T03:16:42;15.40;77.50
6293;DHT22;3179;54.350;10.102;2023-05-09T03:19:08;15.40;77.50
6293;DHT22;3179;54.350;10.102;2023-05-09T03:21:35;15.40;77.60
6293;DHT22;3179;54.350;10.102;2023-05-09T03:24:02;15.40;77.80
6293;DHT22;3179;54.350;10.102;2023-05-09T03:26:30;15.30;78.00
6293;DHT22;3179;54.350;10.102;2023-05-09T03:28:58;15.30;78.00
6293;DHT22;3179;54.350;10.102;2023-05-09T03:31:25;15.30;78.00
6293;DHT22;3179;54.350;10.102;2023-05-09T03:33:52;15.30;78.20
6293;DHT22;3179;54.350;10.102;2023-05-09T03:36:18;15.20;78.30
6293;DHT22;3179;54.350;10.102;2023-05-09T03:38:45;15.20;78.70
6293;DHT22;3179;54.350;10.102;2023-05-09T03:41:15;15.20;78.80
6293;DHT22;3179;54.350;10.102;2023-05-09T03:43:43;15.20;79.30
6293;DHT22;3179;54.350;10.102;2023-05-09T03:46:10;15.10;78.90
6293;DHT22;3179;54.350;10.102;2023-05-09T03:48:37;15.20;78.70
6293;DHT22;3179;54.350;10.102;2023-05-09T03:51:04;15.10;78.90
6293;DHT22;3179;54.350;10.102;2023-05-09T03:53:30;15.10;78.90
6293;DHT22;3179;54.350;10.102;2023-05-09T03:55:57;15.10;79.00
6293;DHT22;3179;54.350;10.102;2023-05-09T03:58:24;15.10;79.20
6293;DHT22;3179;54.350;10.102;2023-05-09T04:00:52;15.00;79.00
6293;DHT22;3179;54.350;10.102;2023-05-09T04:03:19;15.10;79.40
6293;DHT22;3179;54.350;10.102;2023-05-09T04:05:46;15.00;79.80
6293;DHT22;3179;54.350;10.102;2023-05-09T04:08:13;15.00;79.70
6293;DHT22;3179;54.350;10.102;2023-05-09T04:10:39;15.00;79.70
6293;DHT22;3179;54.350;10.102;2023-05-09T04:13:06;15.00;79.70
6293;DHT22;3179;54.350;10.102;2023-05-09T04:15:33;15.00;80.00
6293;DHT22;3179;54.350;10.102;2023-05-09T04:18:01;14.90;80.40
6293;DHT22;3179;54.350;10.102;2023-05-09T04:20:28;14.90;80.30
6293;DHT22;3179;54.350;10.102;2023-05-09T04:22:55;14.90;80.10
6293;DHT22;3179;54.350;10.102;2023-05-09T04:25:23;14.90;80.30
6293;DHT22;3179;54.350;10.102;2023-05-09T04:27:50;14.90;80.40
6293;DHT22;3179;54.350;10.102;2023-05-09T04:30:17;14.90;80.60
6293;DHT22;3179;54.350;10.102;2023-05-09T04:32:45;14.80;80.70
6293;DHT22;3179;54.350;10.102;2023-05-09T04:35:14;14.80;80.70
6293;DHT22;3179;54.350;10.102;2023-05-09T04:37:41;14.80;80.80
6293;DHT22;3179;54.350;10.102;2023-05-09T04:40:09;14.80;80.60
6293;DHT22;3179;54.350;10.102;2023-05-09T04:42:36;14.80;81.00
6293;DHT22;3179;54.350;10.102;2023-05-09T04:45:03;14.80;81.00
6293;DHT22;3179;54.350;10.102;2023-05-09T04:47:31;14.80;81.30
6293;DHT22;3179;54.350;10.102;2023-05-09T04:49:57;14.80;81.30
6293;DHT22;3179;54.350;10.102;2023-05-09T04:52:25;14.80;81.50
6293;DHT22;3179;54.350;10.102;2023-05-09T04:54:52;14.80;81.60
6293;DHT22;3179;54.350;10.102;2023-05-09T04:57:19;14.80;81.70
6293;DHT22;3179;54.350;10.102;2023-05-09T04:59:46;14.80;81.60
6293;DHT22;3179;54.350;10.102;2023-05-09T05:02:13;14.80;81.90
6293;DHT22;3179;54.350;10.102;2023-05-09T05:04:40;14.70;82.10
6293;DHT22;3179;54.350;10.102;2023-05-09T05:07:06;14.70;82.30
6293;DHT22;3179;54.350;10.102;2023-05-09T05:09:34;14.70;82.30
6293;DHT22;3179;54.350;10.102;2023-05-09T05:12:01;14.70;82.40
6293;DHT22;3179;54.350;10.102;2023-05-09T05:14:31;14.70;82.30
6293;DHT22;3179;54.350;10.102;2023-05-09T05:16:58;14.70;82.20
6293;DHT22;3179;54.350;10.102;2023-05-09T05:19:25;14.70;82.70
6293;DHT22;3179;54.350;10.102;2023-05-09T05:21:51;14.70;83.00
6293;DHT22;3179;54.350;10.102;2023-05-09T05:24:18;14.70;82.80
6293;DHT22;3179;54.350;10.102;2023-05-09T05:26:46;14.70;83.00
6293;DHT22;3179;54.350;10.102;2023-05-09T05:29:13;14.70;82.40
6293;DHT22;3179;54.350;10.102;2023-05-09T05:31:40;14.70;83.00
6293;DHT22;3179;54.350;10.102;2023-05-09T05:34:06;14.70;83.30
6293;DHT22;3179;54.350;10.102;2023-05-09T05:36:33;14.70;83.30
6293;DHT22;3179;54.350;10.102;2023-05-09T05:39:00;14.70;83.20
6293;DHT22;3179;54.350;10.102;2023-05-09T05:41:27;14.70;82.90
6293;DHT22;3179;54.350;10.102;2023-05-09T05:43:55;14.70;83.10
6293;DHT22;3179;54.350;10.102;2023-05-09T05:46:21;14.70;83.50
6293;DHT22;3179;54.350;10.102;2023-05-09T05:48:48;14.70;83.20
6293;DHT22;3179;54.350;10.102;2023-05-09T05:51:15;14.70;83.40
6293;DHT22;3179;54.350;10.102;2023-05-09T05:53:41;14.70;83.40
6293;DHT22;3179;54.350;10.102;2023-05-09T05:56:08;14.70;83.50
6293;DHT22;3179;54.350;10.102;2023-05-09T05:58:35;14.70;84.00
6293;DHT22;3179;54.350;10.102;2023-05-09T06:01:03;14.70;84.00
6293;DHT22;3179;54.350;10.102;2023-05-09T06:03:30;14.70;83.80
6293;DHT22;3179;54.350;10.102;2023-05-09T06:05:57;14.70;84.00
6293;DHT22;3179;54.350;10.102;2023-05-09T06:08:24;14.70;84.00
6293;DHT22;3179;54.350;10.102;2023-05-09T06:10:51;14.70;83.60
6293;DHT22;3179;54.350;10.102;2023-05-09T06:13:18;14.70;84.30
6293;DHT22;3179;54.350;10.102;2023-05-09T06:15:44;14.70;84.00
6293;DHT22;3179;54.350;10.102;2023-05-09T06:18:12;14.80;84.20
6293;DHT22;3179;54.350;10.102;2023-05-09T06:20:39;14.80;84.20
6293;DHT22;3179;54.350;10.102;2023-05-09T06:23:06;14.80;83.90
6293;DHT22;3179;54.350;10.102;2023-05-09T06:25:33;14.80;84.40
6293;DHT22;3179;54.350;10.102;2023-05-09T06:27:59;14.80;84.50
6293;DHT22;3179;54.350;10.102;2023-05-09T06:30:26;14.80;84.70
6293;DHT22;3179;54.350;10.102;2023-05-09T06:32:53;14.80;85.10
6293;DHT22;3179;54.350;10.102;2023-05-09T06:35:21;14.80;85.20
6293;DHT22;3179;54.350;10.102;2023-05-09T06:37:48;14.90;85.20
6293;DHT22;3179;54.350;10.102;2023-05-09T06:40:15;14.90;85.20
6293;DHT22;3179;54.350;10.102;2023-05-09T06:42:41;14.90;84.80
6293;DHT22;3179;54.350;10.102;2023-05-09T06:45:09;14.90;84.80
6293;DHT22;3179;54.350;10.102;2023-05-09T06:47:36;14.90;84.90
6293;DHT22;3179;54.350;10.102;2023-05-09T06:50:03;14.90;85.00
6293;DHT22;3179;54.350;10.102;2023-05-09T06:52:31;14.90;85.70
6293;DHT22;3179;54.350;10.102;2023-05-09T06:54:58;14.90;85.40
6293;DHT22;3179;54.350;10.102;2023-05-09T06:57:25;14.90;85.30
6293;DHT22;3179;54.350;10.102;2023-05-09T06:59:52;14.90;85.30
6293;DHT22;3179;54.350;10.102;2023-05-09T07:02:18;14.90;85.60
6293;DHT22;3179;54.350;10.102;2023-05-09T07:04:45;15.00;85.70
6293;DHT22;3179;54.350;10.102;2023-05-09T07:07:12;15.00;86.00
6293;DHT22;3179;54.350;10.102;2023-05-09T07:09:40;15.00;85.50
6293;DHT22;3179;54.350;10.102;2023-05-09T07:12:07;15.00;85.70
6293;DHT22;3179;54.350;10.102;2023-05-09T07:14:33;15.00;86.10
6293;DHT22;3179;54.350;10.102;2023-05-09T07:17:00;15.00;86.60
6293;DHT22;3179;54.350;10.102;2023-05-09T07:19:27;15.10;86.40
6293;DHT22;3179;54.350;10.102;2023-05-09T07:21:54;15.10;86.60
6293;DHT22;3179;54.350;10.102;2023-05-09T07:24:20;15.10;86.20
6293;DHT22;3179;54.350;10.102;2023-05-09T07:26:48;15.20;86.70
6293;DHT22;3179;54.350;10.102;2023-05-09T07:29:15;15.20;86.90
6293;DHT22;3179;54.350;10.102;2023-05-09T07:31:43;15.20;86.50
6293;DHT22;3179;54.350;10.102;2023-05-09T07:34:10;15.30;86.70
6293;DHT22;3179;54.350;10.102;2023-05-09T07:36:36;15.30;86.50
6293;DHT22;3179;54.350;10.102;2023-05-09T07:39:03;15.40;86.60
6293;DHT22;3179;54.350;10.102;2023-05-09T07:41:30;15.40;86.60
6293;DHT22;3179;54.350;10.102;2023-05-09T07:43:58;15.40;86.70
6293;DHT22;3179;54.350;10.102;2023-05-09T07:46:25;15.40;86.70
6293;DHT22;3179;54.350;10.102;2023-05-09T07:48:51;15.40;86.50
6293;DHT22;3179;54.350;10.102;2023-05-09T07:51:18;15.50;86.80
6293;DHT22;3179;54.350;10.102;2023-05-09T07:53:45;15.50;86.90
6293;DHT22;3179;54.350;10.102;2023-05-09T07:56:12;15.50;87.50
6293;DHT22;3179;54.350;10.102;2023-05-09T07:58:38;15.60;86.80
6293;DHT22;3179;54.350;10.102;2023-05-09T08:01:06;15.60;86.70
6293;DHT22;3179;54.350;10.102;2023-05-09T08:03:33;15.70;87.70
6293;DHT22;3179;54.350;10.102;2023-05-09T08:06:00;15.80;88.00
6293;DHT22;3179;54.350;10.102;2023-05-09T08:08:27;15.80;87.30
6293;DHT22;3179;54.350;10.102;2023-05-09T08:10:54;15.90;87.40
6293;DHT22;3179;54.350;10.102;2023-05-09T08:13:21;15.90;87.30
6293;DHT22;3179;54.350;10.102;2023-05-09T08:15:48;15.90;87.70
6293;DHT22;3179;54.350;10.102;2023-05-09T08:18:16;15.90;87.30
6293;DHT22;3179;54.350;10.102;2023-05-09T08:20:43;16.00;88.50
6293;DHT22;3179;54.350;10.102;2023-05-09T08:23:09;16.10;88.40
6293;DHT22;3179;54.350;10.102;2023-05-09T08:25:36;16.20;88.70
6293;DHT22;3179;54.350;10.102;2023-05-09T08:28:03;16.20;87.70
6293;DHT22;3179;54.350;10.102;2023-05-09T08:30:30;16.20;87.80
6293;DHT22;3179;54.350;10.102;2023-05-09T08:32:57;16.20;87.80
6293;DHT22;3179;54.350;10.102;2023-05-09T08:35:25;16.20;87.70
6293;DHT22;3179;54.350;10.102;2023-05-09T08:37:51;16.30;88.60
6293;DHT22;3179;54.350;10.102;2023-05-09T08:40:18;16.40;88.10
6293;DHT22;3179;54.350;10.102;2023-05-09T08:42:46;16.40;87.80
6293;DHT22;3179;54.350;10.102;2023-05-09T08:45:15;16.50;88.30
6293;DHT22;3179;54.350;10.102;2023-05-09T08:47:43;16.50;88.20
6293;DHT22;3179;54.350;10.102;2023-05-09T08:50:11;16.60;88.40
6293;DHT22;3179;54.350;10.102;2023-05-09T08:52:41;16.70;88.40
6293;DHT22;3179;54.350;10.102;2023-05-09T08:55:08;16.80;88.40
6293;DHT22;3179;54.350;10.102;2023-05-09T08:57:35;16.80;88.10
6293;DHT22;3179;54.350;10.102;2023-05-09T09:00:03;16.80;88.20
6293;DHT22;3179;54.350;10.102;2023-05-09T09:02:31;17.00;89.10
6293;DHT22;3179;54.350;10.102;2023-05-09T09:04:58;17.10;88.70
6293;DHT22;3179;54.350;10.102;2023-05-09T09:07:27;17.20;88.80
6293;DHT22;3179;54.350;10.102;2023-05-09T09:09:56;17.30;89.40
6293;DHT22;3179;54.350;10.102;2023-05-09T09:12:24;17.30;89.60
6293;DHT22;3179;54.350;10.102;2023-05-09T09:14:53;17.40;88.60
6293;DHT22;3179;54.350;10.102;2023-05-09T09:17:23;17.40;89.20
6293;DHT22;3179;54.350;10.102;2023-05-09T09:19:54;17.50;89.50
6293;DHT22;3179;54.350;10.102;2023-05-09T09:22:21;17.60;89.30
6293;DHT22;3179;54.350;10.102;2023-05-09T09:24:49;17.70;88.60
6293;DHT22;3179;54.350;10.102;2023-05-09T09:27:17;17.70;88.60
6293;DHT22;3179;54.350;10.102;2023-05-09T09:29:44;17.70;88.70
6293;DHT22;3179;54.350;10.102;2023-05-09T09:32:11;17.80;88.60
6293;DHT22;3179;54.350;10.102;2023-05-09T09:34:38;17.90;88.90
6293;DHT22;3179;54.350;10.102;2023-05-09T09:37:05;17.90;88.70
6293;DHT22;3179;54.350;10.102;2023-05-09T09:39:32;18.00;88.40
6293;DHT22;3179;54.350;10.102;2023-05-09T09:42:09;18.10;88.90
6293;DHT22;3179;54.350;10.102;2023-05-09T09:44:37;18.20;88.70
6293;DHT22;3179;54.350;10.102;2023-05-09T09:47:08;18.30;89.30
6293;DHT22;3179;54.350;10.102;2023-05-09T09:49:35;18.50;88.70
6293;DHT22;3179;54.350;10.102;2023-05-09T09:52:02;18.50;88.60
6293;DHT22;3179;54.350;10.102;2023-05-09T09:54:30;18.60;88.70
6293;DHT22;3179;54.350;10.102;2023-05-09T09:56:57;18.80;89.00
6293;DHT22;3179;54.350;10.102;2023-05-09T09:59:25;18.80;88.20
6293;DHT22;3179;54.350;10.102;2023-05-09T10:01:58;18.90;88.10
6293;DHT22;3179;54.350;10.102;2023-05-09T10:04:27;19.00;88.40
6293;DHT22;3179;54.350;10.102;2023-05-09T10:06:55;19.00;87.90
6293;DHT22;3179;54.350;10.102;2023-05-09T10:09:22;19.10;87.20
6293;DHT22;3179;54.350;10.102;2023-05-09T10:11:51;19.10;87.40
6293;DHT22;3179;54.350;10.102;2023-05-09T10:14:20;19.20;87.20
6293;DHT22;3179;54.350;10.102;2023-05-09T10:16:48;19.30;86.60
6293;DHT22;3179;54.350;10.102;2023-05-09T10:19:19;19.30;86.50
6293;DHT22;3179;54.350;10.102;2023-05-09T10:21:51;19.40;86.30
6293;DHT22;3179;54.350;10.102;2023-05-09T10:24:20;19.50;86.30
6293;DHT22;3179;54.350;10.102;2023-05-09T10:26:49;19.60;86.40
6293;DHT22;3179;54.350;10.102;2023-05-09T10:29:22;19.70;86.10
6293;DHT22;3179;54.350;10.102;2023-05-09T10:31:53;19.70;84.90
6293;DHT22;3179;54.350;10.102;2023-05-09T10:34:25;19.80;85.40
6293;DHT22;3179;54.350;10.102;2023-05-09T10:36:56;19.80;85.60
6293;DHT22;3179;54.350;10.102;2023-05-09T10:39:26;19.90;85.60
6293;DHT22;3179;54.350;10.102;2023-05-09T10:41:53;20.00;85.60
6293;DHT22;3179;54.350;10.102;2023-05-09T10:44:22;20.00;85.10
6293;DHT22;3179;54.350;10.102;2023-05-09T10:46:51;20.10;85.30
6293;DHT22;3179;54.350;10.102;2023-05-09T10:49:18;20.30;85.50
6293;DHT22;3179;54.350;10.102;2023-05-09T10:51:48;20.30;84.90
6293;DHT22;3179;54.350;10.102;2023-05-09T10:54:26;20.40;84.50
6293;DHT22;3179;54.350;10.102;2023-05-09T10:56:53;20.40;83.50
6293;DHT22;3179;54.350;10.102;2023-05-09T10:59:34;20.50;84.70
6293;DHT22;3179;54.350;10.102;2023-05-09T11:02:02;20.60;85.00
6293;DHT22;3179;54.350;10.102;2023-05-09T11:04:30;20.70;84.50
6293;DHT22;3179;54.350;10.102;2023-05-09T11:06:58;20.70;84.00
6293;DHT22;3179;54.350;10.102;2023-05-09T11:09:30;20.80;84.00
6293;DHT22;3179;54.350;10.102;2023-05-09T11:12:10;20.90;83.60
6293;DHT22;3179;54.350;10.102;2023-05-09T11:14:39;20.90;82.60
6293;DHT22;3179;54.350;10.102;2023-05-09T11:17:08;21.00;83.10
6293;DHT22;3179;54.350;10.102;2023-05-09T11:19:36;21.00;83.80
6293;DHT22;3179;54.350;10.102;2023-05-09T11:22:15;21.10;83.00
6293;DHT22;3179;54.350;10.102;2023-05-09T11:24:45;21.20;81.70
6293;DHT22;3179;54.350;10.102;2023-05-09T11:27:18;21.20;82.00
6293;DHT22;3179;54.350;10.102;2023-05-09T11:29:48;21.30;82.30
6293;DHT22;3179;54.350;10.102;2023-05-09T11:32:15;21.40;82.20
6293;DHT22;3179;54.350;10.102;2023-05-09T11:34:43;21.50;81.80
6293;DHT22;3179;54.350;10.102;2023-05-09T11:37:11;21.50;81.10
6293;DHT22;3179;54.350;10.102;2023-05-09T11:39:56;21.60;82.20
6293;DHT22;3179;54.350;10.102;2023-05-09T11:42:23;21.70;81.60
6293;DHT22;3179;54.350;10.102;2023-05-09T11:44:51;21.80;81.90
6293;DHT22;3179;54.350;10.102;2023-05-09T11:47:18;21.80;81.30
6293;DHT22;3179;54.350;10.102;2023-05-09T11:49:46;22.00;82.30
6293;DHT22;3179;54.350;10.102;2023-05-09T11:52:13;22.10;82.40
6293;DHT22;3179;54.350;10.102;2023-05-09T11:54:40;22.10;81.10
6293;DHT22;3179;54.350;10.102;2023-05-09T11:57:09;22.20;80.70
6293;DHT22;3179;54.350;10.102;2023-05-09T11:59:43;22.10;80.20
6293;DHT22;3179;54.350;10.102;2023-05-09T12:02:10;22.10;80.40
6293;DHT22;3179;54.350;10.102;2023-05-09T12:04:37;22.10;80.90
6293;DHT22;3179;54.350;10.102;2023-05-09T12:07:04;22.20;80.40
6293;DHT22;3179;54.350;10.102;2023-05-09T12:09:32;22.20;79.90
6293;DHT22;3179;54.350;10.102;2023-05-09T12:11:59;22.30;80.30
6293;DHT22;3179;54.350;10.102;2023-05-09T12:14:30;22.40;79.50
6293;DHT22;3179;54.350;10.102;2023-05-09T12:16:57;22.40;78.80
6293;DHT22;3179;54.350;10.102;2023-05-09T12:19:24;22.40;78.90
6293;DHT22;3179;54.350;10.102;2023-05-09T12:21:55;22.30;78.30
6293;DHT22;3179;54.350;10.102;2023-05-09T12:24:22;22.30;77.80
6293;DHT22;3179;54.350;10.102;2023-05-09T12:26:51;22.30;77.50
6293;DHT22;3179;54.350;10.102;2023-05-09T12:29:19;22.30;77.00
6293;DHT22;3179;54.350;10.102;2023-05-09T12:31:48;22.40;77.00
6293;DHT22;3179;54.350;10.102;2023-05-09T12:34:15;22.40;76.20
6293;DHT22;3179;54.350;10.102;2023-05-09T12:36:43;22.40;76.20
6293;DHT22;3179;54.350;10.102;2023-05-09T12:39:15;22.40;75.80
6293;DHT22;3179;54.350;10.102;2023-05-09T12:41:43;22.40;75.40
6293;DHT22;3179;54.350;10.102;2023-05-09T12:44:17;22.40;75.20
6293;DHT22;3179;54.350;10.102;2023-05-09T12:46:54;22.50;73.10
6293;DHT22;3179;54.350;10.102;2023-05-09T12:49:22;22.60;72.50
6293;DHT22;3179;54.350;10.102;2023-05-09T12:51:49;22.70;74.20
6293;DHT22;3179;54.350;10.102;2023-05-09T12:54:19;22.80;74.50
6293;DHT22;3179;54.350;10.102;2023-05-09T12:56:47;22.90;73.60
6293;DHT22;3179;54.350;10.102;2023-05-09T12:59:19;22.90;74.20
6293;DHT22;3179;54.350;10.102;2023-05-09T13:01:50;23.00;71.60
6293;DHT22;3179;54.350;10.102;2023-05-09T13:04:20;23.00;71.30
6293;DHT22;3179;54.350;10.102;2023-05-09T13:06:48;23.10;72.80
6293;DHT22;3179;54.350;10.102;2023-05-09T13:09:16;23.10;72.50
6293;DHT22;3179;54.350;10.102;2023-05-09T13:11:43;23.10;71.00
6293;DHT22;3179;54.350;10.102;2023-05-09T13:14:10;23.20;70.70
6293;DHT22;3179;54.350;10.102;2023-05-09T13:16:37;23.30;71.40
6293;DHT22;3179;54.350;10.102;2023-05-09T13:19:04;23.40;71.60
6293;DHT22;3179;54.350;10.102;2023-05-09T13:21:32;23.50;71.50
6293;DHT22;3179;54.350;10.102;2023-05-09T13:23:59;23.60;72.60
6293;DHT22;3179;54.350;10.102;2023-05-09T13:26:26;23.60;72.90
6293;DHT22;3179;54.350;10.102;2023-05-09T13:28:54;23.70;72.30
6293;DHT22;3179;54.350;10.102;2023-05-09T13:31:21;23.90;73.00
6293;DHT22;3179;54.350;10.102;2023-05-09T13:33:47;24.00;71.50
6293;DHT22;3179;54.350;10.102;2023-05-09T13:36:14;24.00;70.10
6293;DHT22;3179;54.350;10.102;2023-05-09T13:38:43;24.10;69.40
6293;DHT22;3179;54.350;10.102;2023-05-09T13:41:11;24.20;69.30
6293;DHT22;3179;54.350;10.102;2023-05-09T13:43:38;24.30;69.00
6293;DHT22;3179;54.350;10.102;2023-05-09T13:46:06;24.40;68.60
6293;DHT22;3179;54.350;10.102;2023-05-09T13:48:33;24.50;68.50
6293;DHT22;3179;54.350;10.102;2023-05-09T13:51:00;24.50;67.60
6293;DHT22;3179;54.350;10.102;2023-05-09T13:53:27;24.50;66.70
6293;DHT22;3179;54.350;10.102;2023-05-09T13:55:56;24.60;66.60
6293;DHT22;3179;54.350;10.102;2023-05-09T13:58:22;24.70;66.30
6293;DHT22;3179;54.350;10.102;2023-05-09T14:00:49;24.90;67.30
6293;DHT22;3179;54.350;10.102;2023-05-09T14:03:17;25.00;66.60
6293;DHT22;3179;54.350;10.102;2023-05-09T14:05:44;25.20;66.60
6293;DHT22;3179;54.350;10.102;2023-05-09T14:08:12;25.30;66.50
6293;DHT22;3179;54.350;10.102;2023-05-09T14:10:40;25.30;66.00
6293;DHT22;3179;54.350;10.102;2023-05-09T14:13:08;25.40;66.20
6293;DHT22;3179;54.350;10.102;2023-05-09T14:15:37;25.50;65.90
6293;DHT22;3179;54.350;10.102;2023-05-09T14:18:04;25.60;66.00
6293;DHT22;3179;54.350;10.102;2023-05-09T14:20:31;25.60;65.80
6293;DHT22;3179;54.350;10.102;2023-05-09T14:22:58;25.60;65.70
6293;DHT22;3179;54.350;10.102;2023-05-09T14:25:25;25.70;65.70
6293;DHT22;3179;54.350;10.102;2023-05-09T14:27:53;25.70;65.50
6293;DHT22;3179;54.350;10.102;2023-05-09T14:30:22;25.70;66.20
6293;DHT22;3179;54.350;10.102;2023-05-09T14:32:50;25.70;65.70
6293;DHT22;3179;54.350;10.102;2023-05-09T14:35:20;25.80;65.90
6293;DHT22;3179;54.350;10.102;2023-05-09T14:37:47;25.90;64.30
6293;DHT22;3179;54.350;10.102;2023-05-09T14:40:14;26.00;64.70
6293;DHT22;3179;54.350;10.102;2023-05-09T14:42:41;26.10;65.10
6293;DHT22;3179;54.350;10.102;2023-05-09T14:45:09;26.30;65.20
6293;DHT22;3179;54.350;10.102;2023-05-09T14:47:38;26.40;64.50
6293;DHT22;3179;54.350;10.102;2023-05-09T14:50:06;26.40;63.70
6293;DHT22;3179;54.350;10.102;2023-05-09T14:52:35;26.50;63.60
6293;DHT22;3179;54.350;10.102;2023-05-09T14:55:02;26.50;63.50
6293;DHT22;3179;54.350;10.102;2023-05-09T14:57:30;26.50;63.00
6293;DHT22;3179;54.350;10.102;2023-05-09T14:59:57;26.50;63.20
6293;DHT22;3179;54.350;10.102;2023-05-09T15:02:24;26.60;63.10
6293;DHT22;3179;54.350;10.102;2023-05-09T15:04:52;26.60;62.90
6293;DHT22;3179;54.350;10.102;2023-05-09T15:07:20;26.60;62.60
6293;DHT22;3179;54.350;10.102;2023-05-09T15:09:47;26.50;62.70
6293;DHT22;3179;54.350;10.102;2023-05-09T15:12:13;26.30;62.50
6293;DHT22;3179;54.350;10.102;2023-05-09T15:14:40;26.20;62.90
6293;DHT22;3179;54.350;10.102;2023-05-09T15:17:07;26.10;62.70
6293;DHT22;3179;54.350;10.102;2023-05-09T15:19:34;26.20;63.00
6293;DHT22;3179;54.350;10.102;2023-05-09T15:22:02;26.50;62.40
6293;DHT22;3179;54.350;10.102;2023-05-09T15:24:30;26.90;62.20
6293;DHT22;3179;54.350;10.102;2023-05-09T15:26:57;27.30;61.70
6293;DHT22;3179;54.350;10.102;2023-05-09T15:29:23;27.50;61.00
6293;DHT22;3179;54.350;10.102;2023-05-09T15:31:51;27.70;60.80
6293;DHT22;3179;54.350;10.102;2023-05-09T15:34:20;27.70;60.80
6293;DHT22;3179;54.350;10.102;2023-05-09T15:36:47;27.60;60.40
6293;DHT22;3179;54.350;10.102;2023-05-09T15:39:15;27.60;60.60
6293;DHT22;3179;54.350;10.102;2023-05-09T15:41:42;27.40;60.00
6293;DHT22;3179;54.350;10.102;2023-05-09T15:44:10;27.30;60.90
6293;DHT22;3179;54.350;10.102;2023-05-09T15:46:39;27.00;60.80
6293;DHT22;3179;54.350;10.102;2023-05-09T15:49:06;26.60;61.00
6293;DHT22;3179;54.350;10.102;2023-05-09T15:51:33;26.30;61.10
6293;DHT22;3179;54.350;10.102;2023-05-09T15:54:03;26.20;61.20